sensor_id;sensor_type;location;lat;lon;timestamp;temperature;humidity
44833;DHT22;30569;51.252;9.830;2022-12-08T05:02:42;2.90;99.90
44833;DHT22;30569;51.252;9.830;2022-12-08T05:05:08;3.00;99.90
44833;DHT22;30569;51.252;9.830;2022-12-08T05:07:34;2.50;99.90
44833;DHT22;30569;51.252;9.830;2022-12-08T05:17:18;2.60;99.90
44833;DHT22;30569;51.252;9.830;2022-12-08T05:27:02;2.60;99.90
44833;DHT22;30569;51.252;9.830;2022-12-08T05:29:28;2.50;99.90
44833;DHT22;30569;51.252;9.830;2022-12-08T05:36:47;2.50;99.90
44833;DHT22;30569;51.252;9.830;2022-12-08T05:39:13;2.30;99.90
44833;DHT22;30569;51.252;9.830;2022-12-08T05:44:05;2.20;99.90
44833;DHT22;30569;51.252;9.830;2022-12-08T05:46:31;2.20;99.90
44833;DHT22;30569;51.252;9.830;2022-12-08T05:48:58;2.30;99.90
44833;DHT22;30569;51.252;9.830;2022-12-08T05:53:50;2.80;99.90
44833;DHT22;30569;51.252;9.830;2022-12-08T06:01:29;2.90;99.90
44833;DHT22;30569;51.252;9.830;2022-12-08T06:03:57;2.80;99.90
44833;DHT22;30569;51.252;9.830;2022-12-08T06:06:23;2.70;99.90
44833;DHT22;30569;51.252;9.830;2022-12-08T06:08:49;3.20;99.90
44833;DHT22;30569;51.252;9.830;2022-12-08T06:11:21;3.00;99.90
44833;DHT22;30569;51.252;9.830;2022-12-08T06:13:48;3.20;99.90
44833;DHT22;30569;51.252;9.830;2022-12-08T06:16:14;3.20;99.90
44833;DHT22;30569;51.252;9.830;2022-12-08T06:18:39;3.20;99.90
44833;DHT22;30569;51.252;9.830;2022-12-08T06:21:10;3.10;99.90
44833;DHT22;30569;51.252;9.830;2022-12-08T06:26:07;2.70;99.90
44833;DHT22;30569;51.252;9.830;2022-12-08T06:28:34;2.60;99.90
44833;DHT22;30569;51.252;9.830;2022-12-08T06:31:06;2.50;99.90
44833;DHT22;30569;51.252;9.830;2022-12-08T06:33:32;2.40;99.90
44833;DHT22;30569;51.252;9.830;2022-12-08T06:38:23;2.20;99.90
44833;DHT22;30569;51.252;9.830;2022-12-08T06:40:56;2.30;99.90
44833;DHT22;30569;51.252;9.830;2022-12-08T06:43:23;2.40;99.90
44833;DHT22;30569;51.252;9.830;2022-12-08T06:48:15;2.40;99.90
44833;DHT22;30569;51.252;9.830;2022-12-08T06:50:40;2.50;99.90
44833;DHT22;30569;51.252;9.830;2022-12-08T06:53:06;2.50;99.90
44833;DHT22;30569;51.252;9.830;2022-12-08T07:05:15;3.20;99.90
44833;DHT22;30569;51.252;9.830;2022-12-08T07:10:07;3.30;99.90
44833;DHT22;30569;51.252;9.830;2022-12-08T07:14:59;2.80;99.90
44833;DHT22;30569;51.252;9.830;2022-12-08T07:32:01;3.60;99.90
44833;DHT22;30569;51.252;9.830;2022-12-08T07:34:26;3.40;99.90
44833;DHT22;30569;51.252;9.830;2022-12-08T07:39:18;3.30;99.90
44833;DHT22;30569;51.252;9.830;2022-12-08T07:41:43;2.90;99.90
44833;DHT22;30569;51.252;9.830;2022-12-08T07:44:10;2.90;99.90
44833;DHT22;30569;51.252;9.830;2022-12-08T07:46:35;3.20;99.90
44833;DHT22;30569;51.252;9.830;2022-12-08T07:49:01;3.30;99.90
44833;DHT22;30569;51.252;9.830;2022-12-08T07:51:26;3.40;99.90
44833;DHT22;30569;51.252;9.830;2022-12-08T07:53:52;3.30;99.90
44833;DHT22;30569;51.252;9.830;2022-12-08T07:56:17;3.10;99.90
44833;DHT22;30569;51.252;9.830;2022-12-08T07:58:43;3.00;99.90
44833;DHT22;30569;51.252;9.830;2022-12-08T08:01:28;2.60;99.90
44833;DHT22;30569;51.252;9.830;2022-12-08T08:03:56;2.50;99.90
44833;DHT22;30569;51.252;9.830;2022-12-08T08:06:22;2.40;99.90
44833;DHT22;30569;51.252;9.830;2022-12-08T08:08:48;2.40;99.90
44833;DHT22;30569;51.252;9.830;2022-12-08T08:11:14;2.40;99.90
44833;DHT22;30569;51.252;9.830;2022-12-08T08:13:39;2.40;99.90
44833;DHT22;30569;51.252;9.830;2022-12-08T08:16:07;2.40;99.90
44833;DHT22;30569;51.252;9.830;2022-12-08T08:18:34;2.40;99.90
44833;DHT22;30569;51.252;9.830;2022-12-08T08:21:00;2.40;99.90
44833;DHT22;30569;51.252;9.830;2022-12-08T08:23:25;2.50;99.90
44833;DHT22;30569;51.252;9.830;2022-12-08T08:25:51;2.70;99.90
44833;DHT22;30569;51.252;9.830;2022-12-08T08:28:17;2.70;99.90
44833;DHT22;30569;51.252;9.830;2022-12-08T08:30:43;2.70;99.90
44833;DHT22;30569;51.252;9.830;2022-12-08T08:33:09;2.70;99.90
44833;DHT22;30569;51.252;9.830;2022-12-08T08:35:34;2.70;99.90
44833;DHT22;30569;51.252;9.830;2022-12-08T08:45:18;2.70;99.90
44833;DHT22;30569;51.252;9.830;2022-12-08T08:47:43;2.70;99.90
44833;DHT22;30569;51.252;9.830;2022-12-08T08:50:09;2.80;99.90
44833;DHT22;30569;51.252;9.830;2022-12-08T08:52:35;2.90;99.90
44833;DHT22;30569;51.252;9.830;2022-12-08T08:55:00;3.00;99.90
44833;DHT22;30569;51.252;9.830;2022-12-08T08:57:26;3.00;99.90
44833;DHT22;30569;51.252;9.830;2022-12-08T08:59:52;2.90;99.90
44833;DHT22;30569;51.252;9.830;2022-12-08T09:02:18;2.90;99.90
44833;DHT22;30569;51.252;9.830;2022-12-08T09:04:44;2.90;99.90
44833;DHT22;30569;51.252;9.830;2022-12-08T09:07:11;2.80;99.90
44833;DHT22;30569;51.252;9.830;2022-12-08T09:09:37;2.80;99.90
44833;DHT22;30569;51.252;9.830;2022-12-08T09:12:03;2.70;99.90
44833;DHT22;30569;51.252;9.830;2022-12-08T09:14:28;2.70;99.90
44833;DHT22;30569;51.252;9.830;2022-12-08T09:16:54;2.60;99.90
44833;DHT22;30569;51.252;9.830;2022-12-08T09:19:19;2.60;99.90
44833;DHT22;30569;51.252;9.830;2022-12-08T09:21:45;2.80;99.90
44833;DHT22;30569;51.252;9.830;2022-12-08T09:29:06;2.80;99.90
44833;DHT22;30569;51.252;9.830;2022-12-08T09:36:24;2.90;99.90
44833;DHT22;30569;51.252;9.830;2022-12-08T09:38:50;2.80;99.90
44833;DHT22;30569;51.252;9.830;2022-12-08T09:41:35;2.90;99.90
44833;DHT22;30569;51.252;9.830;2022-12-08T09:46:46;2.90;99.90
44833;DHT22;30569;51.252;9.830;2022-12-08T09:49:18;2.90;99.90
44833;DHT22;30569;51.252;9.830;2022-12-08T09:51:45;3.10;99.90
44833;DHT22;30569;51.252;9.830;2022-12-08T09:54:20;3.30;99.90
44833;DHT22;30569;51.252;9.830;2022-12-08T09:56:52;3.20;99.90
44833;DHT22;30569;51.252;9.830;2022-12-08T10:01:54;3.40;99.90
44833;DHT22;30569;51.252;9.830;2022-12-08T10:04:27;3.10;99.90
44833;DHT22;30569;51.252;9.830;2022-12-08T10:07:15;3.10;99.90
44833;DHT22;30569;51.252;9.830;2022-12-08T10:09:51;3.30;99.90
44833;DHT22;30569;51.252;9.830;2022-12-08T10:12:33;3.60;99.90
44833;DHT22;30569;51.252;9.830;2022-12-08T10:17:50;3.40;99.90
44833;DHT22;30569;51.252;9.830;2022-12-08T10:20:23;4.00;99.90
44833;DHT22;30569;51.252;9.830;2022-12-08T10:23:00;4.00;99.90
44833;DHT22;30569;51.252;9.830;2022-12-08T10:25:37;4.20;99.90
44833;DHT22;30569;51.252;9.830;2022-12-08T10:28:03;4.00;99.90
44833;DHT22;30569;51.252;9.830;2022-12-08T10:30:30;4.80;99.90
44833;DHT22;30569;51.252;9.830;2022-12-08T10:32:56;4.80;99.90
44833;DHT22;30569;51.252;9.830;2022-12-08T10:35:23;4.90;99.90
44833;DHT22;30569;51.252;9.830;2022-12-08T10:38:00;4.20;99.90
44833;DHT22;30569;51.252;9.830;2022-12-08T10:40:29;3.90;99.90
44833;DHT22;30569;51.252;9.830;2022-12-08T10:45:37;4.20;99.90
44833;DHT22;30569;51.252;9.830;2022-12-08T10:48:05;4.70;99.90
44833;DHT22;30569;51.252;9.830;2022-12-08T10:55:47;4.70;99.90
44833;DHT22;30569;51.252;9.830;2022-12-08T10:58:34;4.70;99.90
44833;DHT22;30569;51.252;9.830;2022-12-08T11:01:24;3.90;99.90
44833;DHT22;30569;51.252;9.830;2022-12-08T11:03:58;3.90;99.90
44833;DHT22;30569;51.252;9.830;2022-12-08T11:08:57;4.00;99.90
44833;DHT22;30569;51.252;9.830;2022-12-08T11:11:42;4.20;99.90
44833;DHT22;30569;51.252;9.830;2022-12-08T11:14:31;4.50;99.90
44833;DHT22;30569;51.252;9.830;2022-12-08T11:17:06;4.40;99.90
44833;DHT22;30569;51.252;9.830;2022-12-08T11:19:36;4.20;99.90
44833;DHT22;30569;51.252;9.830;2022-12-08T11:22:26;4.30;99.90
44833;DHT22;30569;51.252;9.830;2022-12-08T11:25:21;4.20;99.90
44833;DHT22;30569;51.252;9.830;2022-12-08T11:27:48;3.80;99.90
44833;DHT22;30569;51.252;9.830;2022-12-08T11:30:21;4.10;99.90
44833;DHT22;30569;51.252;9.830;2022-12-08T11:32:55;4.10;99.90
44833;DHT22;30569;51.252;9.830;2022-12-08T11:35:39;4.10;99.90
44833;DHT22;30569;51.252;9.830;2022-12-08T11:38:18;3.60;99.90
44833;DHT22;30569;51.252;9.830;2022-12-08T11:40:48;3.50;99.90
44833;DHT22;30569;51.252;9.830;2022-12-08T11:43:34;3.60;99.90
44833;DHT22;30569;51.252;9.830;2022-12-08T11:46:16;3.50;99.90
44833;DHT22;30569;51.252;9.830;2022-12-08T11:48:57;3.60;99.90
44833;DHT22;30569;51.252;9.830;2022-12-08T11:54:12;3.60;99.90
44833;DHT22;30569;51.252;9.830;2022-12-08T11:56:54;3.50;99.90
44833;DHT22;30569;51.252;9.830;2022-12-08T12:01:57;3.30;99.90
44833;DHT22;30569;51.252;9.830;2022-12-08T12:04:29;3.30;99.90
44833;DHT22;30569;51.252;9.830;2022-12-08T12:07:19;3.40;99.90
44833;DHT22;30569;51.252;9.830;2022-12-08T12:16:18;3.60;99.90
44833;DHT22;30569;51.252;9.830;2022-12-08T12:18:52;3.70;99.90
44833;DHT22;30569;51.252;9.830;2022-12-08T12:21:42;3.60;99.90
44833;DHT22;30569;51.252;9.830;2022-12-08T12:24:20;3.60;99.90
44833;DHT22;30569;51.252;9.830;2022-12-08T12:27:05;4.00;99.90
44833;DHT22;30569;51.252;9.830;2022-12-08T12:29:34;3.60;99.90
44833;DHT22;30569;51.252;9.830;2022-12-08T12:32:11;3.80;99.90
44833;DHT22;30569;51.252;9.830;2022-12-08T12:34:47;3.70;99.90
44833;DHT22;30569;51.252;9.830;2022-12-08T12:37:19;3.50;99.90
44833;DHT22;30569;51.252;9.830;2022-12-08T12:45:28;3.80;99.90
44833;DHT22;30569;51.252;9.830;2022-12-08T12:50:41;4.30;99.90
44833;DHT22;30569;51.252;9.830;2022-12-08T12:55:58;4.40;99.90
44833;DHT22;30569;51.252;9.830;2022-12-08T13:03:43;4.20;99.90
44833;DHT22;30569;51.252;9.830;2022-12-08T13:06:11;3.70;99.90
44833;DHT22;30569;51.252;9.830;2022-12-08T13:08:58;3.60;99.90
44833;DHT22;30569;51.252;9.830;2022-12-08T13:11:25;3.70;99.90
44833;DHT22;30569;51.252;9.830;2022-12-08T13:14:03;3.40;99.90
44833;DHT22;30569;51.252;9.830;2022-12-08T13:16:37;3.30;99.90
44833;DHT22;30569;51.252;9.830;2022-12-08T13:19:08;3.10;99.90
44833;DHT22;30569;51.252;9.830;2022-12-08T13:21:37;3.00;99.90
44833;DHT22;30569;51.252;9.830;2022-12-08T13:24:31;2.90;99.90
44833;DHT22;30569;51.252;9.830;2022-12-08T13:31:58;2.80;99.90
44833;DHT22;30569;51.252;9.830;2022-12-08T13:34:39;2.90;99.90
44833;DHT22;30569;51.252;9.830;2022-12-08T13:39:46;3.20;99.90
44833;DHT22;30569;51.252;9.830;2022-12-08T13:42:36;3.20;99.90
44833;DHT22;30569;51.252;9.830;2022-12-08T13:45:16;3.60;99.90
44833;DHT22;30569;51.252;9.830;2022-12-08T13:48:12;3.90;99.90
44833;DHT22;30569;51.252;9.830;2022-12-08T13:50:47;4.40;99.90
44833;DHT22;30569;51.252;9.830;2022-12-08T13:58:16;3.80;99.90
44833;DHT22;30569;51.252;9.830;2022-12-08T14:00:42;3.70;99.90
44833;DHT22;30569;51.252;9.830;2022-12-08T14:03:17;3.50;99.90
44833;DHT22;30569;51.252;9.830;2022-12-08T14:08:27;3.10;99.90
44833;DHT22;30569;51.252;9.830;2022-12-08T14:10:58;2.80;99.90
44833;DHT22;30569;51.252;9.830;2022-12-08T14:15:51;2.70;99.90
44833;DHT22;30569;51.252;9.830;2022-12-08T14:18:24;2.40;99.90
44833;DHT22;30569;51.252;9.830;2022-12-08T14:21:02;2.30;99.90
44833;DHT22;30569;51.252;9.830;2022-12-08T14:23:28;2.30;99.90
44833;DHT22;30569;51.252;9.830;2022-12-08T14:25:54;2.40;99.90
44833;DHT22;30569;51.252;9.830;2022-12-08T14:30:48;2.60;99.90
44833;DHT22;30569;51.252;9.830;2022-12-08T14:33:15;2.70;99.90
44833;DHT22;30569;51.252;9.830;2022-12-08T14:35:57;2.60;99.90
44833;DHT22;30569;51.252;9.830;2022-12-08T14:38:24;2.50;99.90
44833;DHT22;30569;51.252;9.830;2022-12-08T14:41:07;2.60;99.90
44833;DHT22;30569;51.252;9.830;2022-12-08T14:43:34;3.00;99.90
44833;DHT22;30569;51.252;9.830;2022-12-08T14:46:03;3.70;99.90
44833;DHT22;30569;51.252;9.830;2022-12-08T14:54:00;2.80;99.90
44833;DHT22;30569;51.252;9.830;2022-12-08T14:56:59;3.30;99.90
44833;DHT22;30569;51.252;9.830;2022-12-08T14:59:31;3.90;99.90
44833;DHT22;30569;51.252;9.830;2022-12-08T15:04:46;4.70;99.90
44833;DHT22;30569;51.252;9.830;2022-12-08T15:07:20;4.80;99.90
44833;DHT22;30569;51.252;9.830;2022-12-08T15:09:47;5.10;99.90
44833;DHT22;30569;51.252;9.830;2022-12-08T15:14:54;5.00;99.90
44833;DHT22;30569;51.252;9.830;2022-12-08T15:17:28;5.00;99.90
44833;DHT22;30569;51.252;9.830;2022-12-08T15:19:55;4.60;99.90
44833;DHT22;30569;51.252;9.830;2022-12-08T15:22:21;4.10;99.90
44833;DHT22;30569;51.252;9.830;2022-12-08T15:24:47;3.60;99.90
44833;DHT22;30569;51.252;9.830;2022-12-08T15:27:20;2.90;99.90
44833;DHT22;30569;51.252;9.830;2022-12-08T15:32:17;2.60;99.90
44833;DHT22;30569;51.252;9.830;2022-12-08T15:37:21;3.00;99.90
44833;DHT22;30569;51.252;9.830;2022-12-08T15:39:48;3.00;99.90
44833;DHT22;30569;51.252;9.830;2022-12-08T15:44:40;3.20;99.90
44833;DHT22;30569;51.252;9.830;2022-12-08T15:47:21;3.10;99.90
44833;DHT22;30569;51.252;9.830;2022-12-08T15:49:48;3.10;99.90
44833;DHT22;30569;51.252;9.830;2022-12-08T15:52:18;2.60;99.90
44833;DHT22;30569;51.252;9.830;2022-12-08T15:54:44;2.60;99.90
44833;DHT22;30569;51.252;9.830;2022-12-08T15:57:29;2.50;99.90
44833;DHT22;30569;51.252;9.830;2022-12-08T15:59:56;2.30;99.90
44833;DHT22;30569;51.252;9.830;2022-12-08T16:07:26;2.30;99.90
44833;DHT22;30569;51.252;9.830;2022-12-08T16:09:52;2.40;99.90
44833;DHT22;30569;51.252;9.830;2022-12-08T16:12:26;3.00;99.90
44833;DHT22;30569;51.252;9.830;2022-12-08T16:15:11;3.40;99.90
44833;DHT22;30569;51.252;9.830;2022-12-08T16:17:38;4.20;99.90
44833;DHT22;30569;51.252;9.830;2022-12-08T16:20:12;4.30;99.90
44833;DHT22;30569;51.252;9.830;2022-12-08T16:22:38;4.30;99.90
44833;DHT22;30569;51.252;9.830;2022-12-08T16:25:04;4.40;99.90
44833;DHT22;30569;51.252;9.830;2022-12-08T16:27:32;4.60;99.90
44833;DHT22;30569;51.252;9.830;2022-12-08T16:29:59;4.70;99.90
44833;DHT22;30569;51.252;9.830;2022-12-08T16:32:27;4.60;99.90
44833;DHT22;30569;51.252;9.830;2022-12-08T16:34:53;4.60;99.90
44833;DHT22;30569;51.252;9.830;2022-12-08T16:37:21;4.60;99.90
44833;DHT22;30569;51.252;9.830;2022-12-08T16:42:28;4.50;99.90
44833;DHT22;30569;51.252;9.830;2022-12-08T16:47:34;4.20;99.90
44833;DHT22;30569;51.252;9.830;2022-12-08T16:50:03;4.30;99.90
44833;DHT22;30569;51.252;9.830;2022-12-08T16:52:29;4.20;99.90
44833;DHT22;30569;51.252;9.830;2022-12-08T16:54:55;4.10;99.90
44833;DHT22;30569;51.252;9.830;2022-12-08T16:57:21;4.20;99.90
44833;DHT22;30569;51.252;9.830;2022-12-08T16:59:46;4.40;99.90
44833;DHT22;30569;51.252;9.830;2022-12-08T17:02:12;4.40;99.90
44833;DHT22;30569;51.252;9.830;2022-12-08T17:04:37;4.40;99.90
44833;DHT22;30569;51.252;9.830;2022-12-08T17:07:03;4.30;99.90
44833;DHT22;30569;51.252;9.830;2022-12-08T17:09:30;4.20;99.90
44833;DHT22;30569;51.252;9.830;2022-12-08T17:11:56;4.30;99.90
44833;DHT22;30569;51.252;9.830;2022-12-08T17:14:21;4.30;99.90
44833;DHT22;30569;51.252;9.830;2022-12-08T17:21:40;4.30;99.90
44833;DHT22;30569;51.252;9.830;2022-12-08T17:24:06;4.30;99.90
44833;DHT22;30569;51.252;9.830;2022-12-08T17:26:32;4.30;99.90
44833;DHT22;30569;51.252;9.830;2022-12-08T17:29:00;4.20;99.90
44833;DHT22;30569;51.252;9.830;2022-12-08T17:31:27;4.10;99.90
44833;DHT22;30569;51.252;9.830;2022-12-08T17:33:52;4.00;99.90
44833;DHT22;30569;51.252;9.830;2022-12-08T17:36:18;4.00;99.90
44833;DHT22;30569;51.252;9.830;2022-12-08T17:38:44;4.00;99.90
44833;DHT22;30569;51.252;9.830;2022-12-08T17:53:21;4.00;99.90
44833;DHT22;30569;51.252;9.830;2022-12-08T17:55:55;3.90;99.90
44833;DHT22;30569;51.252;9.830;2022-12-08T17:58:22;3.80;99.90
44833;DHT22;30569;51.252;9.830;2022-12-08T18:03:16;3.70;99.90
44833;DHT22;30569;51.252;9.830;2022-12-08T18:05:42;3.90;99.90
44833;DHT22;30569;51.252;9.830;2022-12-08T18:10:34;4.00;99.90
44833;DHT22;30569;51.252;9.830;2022-12-08T18:12:59;3.90;99.90
44833;DHT22;30569;51.252;9.830;2022-12-08T18:15:25;3.90;99.90
44833;DHT22;30569;51.252;9.830;2022-12-08T18:17:51;4.00;99.90
44833;DHT22;30569;51.252;9.830;2022-12-08T18:22:42;4.00;99.90
44833;DHT22;30569;51.252;9.830;2022-12-08T18:25:09;3.80;99.90
44833;DHT22;30569;51.252;9.830;2022-12-08T18:27:35;3.80;99.90
44833;DHT22;30569;51.252;9.830;2022-12-08T18:30:06;3.80;99.90
44833;DHT22;30569;51.252;9.830;2022-12-08T18:32:32;3.60;99.90
44833;DHT22;30569;51.252;9.830;2022-12-08T18:34:58;3.80;99.90
44833;DHT22;30569;51.252;9.830;2022-12-08T18:37:24;3.60;99.90
44833;DHT22;30569;51.252;9.830;2022-12-08T18:44:53;3.70;99.90
44833;DHT22;30569;51.252;9.830;2022-12-08T18:47:31;3.80;99.90
44833;DHT22;30569;51.252;9.830;2022-12-08T18:49:57;3.90;99.90
44833;DHT22;30569;51.252;9.830;2022-12-08T18:52:26;3.80;99.90
44833;DHT22;30569;51.252;9.830;2022-12-08T18:54:53;3.90;99.90
44833;DHT22;30569;51.252;9.830;2022-12-08T18:57:18;3.80;99.90
44833;DHT22;30569;51.252;9.830;2022-12-08T18:59:44;3.80;99.90
44833;DHT22;30569;51.252;9.830;2022-12-08T19:02:11;3.70;99.90
44833;DHT22;30569;51.252;9.830;2022-12-08T19:04:37;3.80;99.90
44833;DHT22;30569;51.252;9.830;2022-12-08T19:07:02;3.80;99.90
44833;DHT22;30569;51.252;9.830;2022-12-08T19:11:55;3.80;99.90
44833;DHT22;30569;51.252;9.830;2022-12-08T19:14:22;3.90;99.90
44833;DHT22;30569;51.252;9.830;2022-12-08T19:16:48;3.90;99.90
44833;DHT22;30569;51.252;9.830;2022-12-08T19:19:14;3.90;99.90
44833;DHT22;30569;51.252;9.830;2022-12-08T19:21:40;3.90;99.90
44833;DHT22;30569;51.252;9.830;2022-12-08T19:24:06;3.90;99.90
44833;DHT22;30569;51.252;9.830;2022-12-08T19:26:32;4.00;99.90
44833;DHT22;30569;51.252;9.830;2022-12-08T19:33:50;4.10;99.90
44833;DHT22;30569;51.252;9.830;2022-12-08T19:36:18;4.00;99.90
44833;DHT22;30569;51.252;9.830;2022-12-08T19:41:29;4.00;99.90
44833;DHT22;30569;51.252;9.830;2022-12-08T19:44:20;4.00;99.90
44833;DHT22;30569;51.252;9.830;2022-12-08T19:46:59;4.10;99.90
44833;DHT22;30569;51.252;9.830;2022-12-08T19:49:25;4.00;99.90
44833;DHT22;30569;51.252;9.830;2022-12-08T19:51:51;4.00;99.90
44833;DHT22;30569;51.252;9.830;2022-12-08T19:54:16;4.00;99.90
44833;DHT22;30569;51.252;9.830;2022-12-08T19:59:09;4.00;99.90
44833;DHT22;30569;51.252;9.830;2022-12-08T20:01:34;4.00;99.90
44833;DHT22;30569;51.252;9.830;2022-12-08T20:04:03;4.10;99.90
44833;DHT22;30569;51.252;9.830;2022-12-08T20:06:28;4.20;99.90
44833;DHT22;30569;51.252;9.830;2022-12-08T20:08:54;4.20;99.90
44833;DHT22;30569;51.252;9.830;2022-12-08T20:11:20;4.20;99.90
44833;DHT22;30569;51.252;9.830;2022-12-08T20:13:46;4.30;99.90
44833;DHT22;30569;51.252;9.830;2022-12-08T20:16:13;4.30;99.90
44833;DHT22;30569;51.252;9.830;2022-12-08T20:18:39;4.30;99.90
44833;DHT22;30569;51.252;9.830;2022-12-08T20:21:07;4.30;99.90
44833;DHT22;30569;51.252;9.830;2022-12-08T20:23:33;4.30;99.90
44833;DHT22;30569;51.252;9.830;2022-12-08T20:26:01;4.40;99.90
44833;DHT22;30569;51.252;9.830;2022-12-08T20:28:27;4.40;99.90
44833;DHT22;30569;51.252;9.830;2022-12-08T20:30:53;4.50;99.90
44833;DHT22;30569;51.252;9.830;2022-12-08T20:33:19;4.50;99.90
44833;DHT22;30569;51.252;9.830;2022-12-08T20:35:45;4.50;99.90
44833;DHT22;30569;51.252;9.830;2022-12-08T20:38:10;4.40;99.90
44833;DHT22;30569;51.252;9.830;2022-12-08T20:40:41;4.40;99.90
44833;DHT22;30569;51.252;9.830;2022-12-08T20:43:07;4.40;99.90
44833;DHT22;30569;51.252;9.830;2022-12-08T20:45:32;4.40;99.90
44833;DHT22;30569;51.252;9.830;2022-12-08T20:47:58;4.50;99.90
44833;DHT22;30569;51.252;9.830;2022-12-08T20:50:24;4.00;99.90
44833;DHT22;30569;51.252;9.830;2022-12-08T20:52:50;4.00;99.90
44833;DHT22;30569;51.252;9.830;2022-12-08T20:55:15;3.30;99.90
44833;DHT22;30569;51.252;9.830;2022-12-08T20:57:41;2.60;99.90
44833;DHT22;30569;51.252;9.830;2022-12-08T21:00:06;2.60;99.90
44833;DHT22;30569;51.252;9.830;2022-12-08T21:04:58;2.20;99.90
44833;DHT22;30569;51.252;9.830;2022-12-08T21:07:24;2.20;99.90
44833;DHT22;30569;51.252;9.830;2022-12-08T21:09:49;2.40;99.90
44833;DHT22;30569;51.252;9.830;2022-12-08T21:12:15;2.80;99.90
44833;DHT22;30569;51.252;9.830;2022-12-08T21:14:40;3.20;99.90
44833;DHT22;30569;51.252;9.830;2022-12-08T21:17:06;3.50;99.90
44833;DHT22;30569;51.252;9.830;2022-12-08T21:19:32;3.80;99.90
44833;DHT22;30569;51.252;9.830;2022-12-08T21:21:58;3.90;99.90
44833;DHT22;30569;51.252;9.830;2022-12-08T21:26:49;4.10;99.90
44833;DHT22;30569;51.252;9.830;2022-12-08T21:29:15;4.10;99.90
44833;DHT22;30569;51.252;9.830;2022-12-08T21:31:40;4.20;99.90
44833;DHT22;30569;51.252;9.830;2022-12-08T21:34:06;4.00;99.90
44833;DHT22;30569;51.252;9.830;2022-12-08T21:36:32;4.00;99.90
44833;DHT22;30569;51.252;9.830;2022-12-08T21:38:57;3.80;99.90
44833;DHT22;30569;51.252;9.830;2022-12-08T21:41:27;3.30;99.90
44833;DHT22;30569;51.252;9.830;2022-12-08T21:44:14;3.20;99.90
44833;DHT22;30569;51.252;9.830;2022-12-08T21:46:42;2.90;99.90
44833;DHT22;30569;51.252;9.830;2022-12-08T21:49:08;1.80;99.90
44833;DHT22;30569;51.252;9.830;2022-12-08T21:56:28;1.90;99.90
44833;DHT22;30569;51.252;9.830;2022-12-08T21:58:53;2.10;99.90
44833;DHT22;30569;51.252;9.830;2022-12-08T22:01:19;2.80;99.90
44833;DHT22;30569;51.252;9.830;2022-12-08T22:03:44;3.10;99.90
44833;DHT22;30569;51.252;9.830;2022-12-08T22:06:12;3.30;99.90
44833;DHT22;30569;51.252;9.830;2022-12-08T22:08:38;3.50;99.90
44833;DHT22;30569;51.252;9.830;2022-12-08T22:11:05;3.80;99.90
44833;DHT22;30569;51.252;9.830;2022-12-08T22:13:33;3.90;99.90
44833;DHT22;30569;51.252;9.830;2022-12-08T22:16:04;3.90;99.90
44833;DHT22;30569;51.252;9.830;2022-12-08T22:20:57;4.10;99.90
44833;DHT22;30569;51.252;9.830;2022-12-08T22:23:22;4.10;99.90
44833;DHT22;30569;51.252;9.830;2022-12-08T22:25:55;4.20;99.90
44833;DHT22;30569;51.252;9.830;2022-12-08T22:28:22;4.20;99.90
44833;DHT22;30569;51.252;9.830;2022-12-08T22:30:47;4.20;99.90
44833;DHT22;30569;51.252;9.830;2022-12-08T22:42:56;4.10;99.90
44833;DHT22;30569;51.252;9.830;2022-12-08T22:45:22;4.10;99.90
44833;DHT22;30569;51.252;9.830;2022-12-08T22:50:13;3.60;99.90
44833;DHT22;30569;51.252;9.830;2022-12-08T22:52:39;3.50;99.90
44833;DHT22;30569;51.252;9.830;2022-12-08T22:55:05;3.70;99.90
44833;DHT22;30569;51.252;9.830;2022-12-08T22:57:31;3.90;99.90
44833;DHT22;30569;51.252;9.830;2022-12-08T22:59:56;4.00;99.90
